首页
METAR-TAF:

METAR-TAF

机场 :

Munising, 密歇根州, 美国

纬度: 46-24N, 经度: 086-39W, 海拔: 187米

当前天气观测

该预报发布于14分钟前的20:56 UTC
风速12节,风向
温度 -3°C
湿度 80%
气压 1004 hPa

METAR: KP53 142056Z AUTO 36012KT M03/M06 A2966 RMK AO1 SLP054 T10281056 53009

时间: 16:10 (21:10 UTC)


TAF: 丢失

超过4000个机场的气象观测和天气预报(METAR&TAF报告)。

可查询的气象台以黄色和红色小点在地图上表示。

将鼠标移到小点上方,可查看气象台名称。

然后点击查看天气观测和预报。

如需切换地图:点击带黑十字的绿色按钮放大地图;点击带横线的绿色按钮缩小地图;或者点击绿色箭头查看邻近地区的地图。


METAR-TAF: